Hunting Valley, Ohio
Current Conditions -  °F | °C
As of 11:45 AM on Thursday 30 Oct 2014 (Local Time) from KCGF Reporting Station
Broken Clouds Broken Clouds  
Wind Chill: 44°   Ceiling: 2400
Heat Index: 48°   Visibility: 10mi
Dew Point: 37°   Wind: 9mph
Humidity: 66%   Direction: 250°WSW
Pressure: 30.13"   Gusts: NA
Location:  41.4475°N, 81.4018°W
Report Text: KCGF 301545Z 25008KT 10SM BKN024 BKN040 09/03 A3013
Loading
Personal Weather Stations






























Interactive Weather Map
Tropical Storm Tracking
New forecast layout! Learn more

10-Day Weather Forecast

Advertisements
Track Severe Weather on mobile